FW9084 Weather Reports


Display with metric or nautical units.
time (UTC)temp
F
wind
direction
speed
MPH
gust
MPH
rain 1hr
in
rain 24hr
in
rain mn
in
humidity
%
barometer
mb
20210923033630 63 201 0.0 0.0 0.00 0.00 0.00 86 1024.3
20210923032131 63 201 0.0 0.0 0.00 0.00 0.00 86 1024.0
20210923030632 63 201 0.0 0.0 0.00 0.00 0.00 86 1024.3
20210923025130 63 201 0.0 0.0 0.00 0.00 0.00 87 1024.0
20210923023629 63 201 0.0 0.0 0.00 0.00 0.00 87 1024.3
20210923022128 63 201 0.0 0.0 0.00 0.00 0.00 87 1024.3
20210923020631 63 201 0.0 0.0 0.00 0.00 0.00 87 1024.3
20210923015135 63 201 0.0 0.0 0.00 0.00 0.00 86 1024.3
20210923013631 64 201 0.0 0.0 0.00 0.00 0.00 85 1024.3
20210923012129 64 201 1.0 4.0 0.00 0.00 0.00 85 1024.3
20210923010628 64 201 3.0 4.0 0.00 0.00 0.00 86 1024.3
20210923005129 64 194 4.0 6.0 0.00 0.00 0.00 85 1024.3
20210923003629 64 190 3.0 5.0 0.00 0.00 0.00 86 1024.3
20210923002128 64 190 2.0 4.0 0.00 0.00 0.00 85 1024.3
20210923000629 64 190 3.0 4.0 0.00 0.00 0.00 84 1024.3
20210922235130 65 192 4.0 7.0 0.00 0.00 0.00 83 1024.3
20210922233629 65 204 4.0 8.0 0.00 0.00 0.00 83 1024.3
20210922232131 65 219 4.0 7.0 0.00 0.00 0.00 83 1024.0
20210922230630 65 210 5.0 9.0 0.00 0.00 0.00 83 1024.0
20210922225129 65 217 6.0 10.0 0.00 0.00 0.00 83 1024.0
20210922223629 65 217 6.0 10.0 0.00 0.00 0.00 82 1024.0
20210922222130 66 217 7.0 11.0 0.00 0.00 0.00 81 1024.0
20210922220625 66 208 6.0 11.0 0.00 0.00 0.00 81 1024.0
20210922215129 66 217 6.0 9.0 0.00 0.00 0.00 80 1024.0
20210922213630 67 217 6.0 10.0 0.00 0.00 0.00 79 1024.0
20210922212129 67 214 6.0 9.0 0.00 0.00 0.00 78 1023.6
20210922210629 68 208 6.0 12.0 0.00 0.00 0.00 76 1024.0
20210922205129 69 216 6.0 10.0 0.00 0.00 0.00 75 1024.0
20210922203629 69 210 6.0 13.0 0.00 0.00 0.00 73 1024.0
20210922202130 70 217 7.0 14.0 0.00 0.00 0.00 72 1024.3
20210922200628 70 219 10.0 17.0 0.00 0.00 0.00 71 1024.0
20210922195129 70 218 12.0 19.0 0.00 0.00 0.00 70 1024.0
20210922193629 70 217 10.0 17.0 0.00 0.00 0.00 70 1023.6
20210922192129 70 217 10.0 16.0 0.00 0.00 0.00 71 1024.3
20210922190628 71 218 11.0 20.0 0.00 0.00 0.00 69 1024.0
20210922185129 72 214 11.0 18.0 0.00 0.00 0.00 67 1024.0
20210922183629 72 213 11.0 24.0 0.00 0.00 0.00 67 1024.0
20210922182126 73 212 10.0 16.0 0.00 0.00 0.00 66 1024.0
20210922180629 73 214 10.0 17.0 0.00 0.00 0.00 65 1023.6
20210922175129 73 213 10.0 19.0 0.00 0.00 0.00 66 1023.6
20210922173630 71 214 10.0 17.0 0.00 0.00 0.00 70 1024.7
20210922172128 72 215 9.0 16.0 0.00 0.00 0.00 69 1024.7
20210922170628 72 214 10.0 15.0 0.00 0.00 0.00 67 1024.7
20210922165119 72 218 9.0 16.0 0.00 0.00 0.00 67 1024.3
20210922160629 70 215 9.0 14.0 0.00 0.00 0.00 73 1025.7
20210922155130 70 212 9.0 13.0 0.00 0.00 0.00 72 1025.7
20210922153629 70 210 10.0 15.0 0.00 0.00 0.00 73 1025.7
20210922152128 70 209 11.0 17.0 0.00 0.00 0.00 73 1025.7
20210922150629 71 209 10.0 15.0 0.00 0.00 0.00 72 1025.7
20210922145130 71 207 8.0 13.0 0.00 0.00 0.00 72 1025.7
20210922143629 69 208 10.0 15.0 0.00 0.00 0.00 76 1025.7
20210922142133 68 211 10.0 16.0 0.00 0.00 0.00 76 1026.0
20210922140628 69 207 11.0 18.0 0.00 0.00 0.00 75 1025.7
20210922135128 69 209 10.0 17.0 0.00 0.00 0.00 76 1025.7
20210922133628 68 207 10.0 16.0 0.00 0.00 0.00 80 1025.7
20210922132132 66 207 9.0 14.0 0.00 0.00 0.00 84 1025.7
20210922130629 65 216 7.0 11.0 0.00 0.00 0.00 87 1026.0
20210922125129 63 214 8.0 12.0 0.00 0.00 0.00 89 1026.7
20210922123631 63 214 6.0 11.0 0.00 0.00 0.00 91 1027.0
20210922122129 62 217 6.0 11.0 0.00 0.00 0.00 92 1027.4
20210922120630 62 217 8.0 13.0 0.00 0.00 0.00 92 1027.4
20210922115129 62 212 8.0 15.0 0.00 0.00 0.00 92 1027.4
20210922113629 62 211 7.0 13.0 0.00 0.00 0.00 92 1027.4
20210922112129 62 221 5.0 8.0 0.00 0.00 0.00 93 1027.7
20210922110628 62 210 5.0 9.0 0.00 0.00 0.00 92 1027.4
20210922105129 62 212 7.0 10.0 0.00 0.00 0.00 91 1027.7
20210922103636 62 211 8.0 13.0 0.00 0.00 0.00 90 1027.7
20210922102128 62 222 5.0 10.0 0.00 0.00 0.00 90 1027.7
20210922100630 62 221 6.0 11.0 0.00 0.00 0.00 90 1027.7
20210922095127 62 208 4.0 8.0 0.00 0.00 0.00 90 1027.7
20210922093630 61 217 3.0 8.0 0.00 0.00 0.00 90 1027.4
20210922092129 61 195 5.0 9.0 0.00 0.00 0.00 90 1027.4
20210922090628 62 203 4.0 10.0 0.00 0.00 0.00 90 1027.7
20210922085128 62 205 3.0 6.0 0.00 0.00 0.00 90 1027.7
20210922083629 62 206 4.0 8.0 0.00 0.00 0.00 90 1027.7
20210922082129 62 208 3.0 6.0 0.00 0.00 0.00 90 1028.1
20210922080628 61 203 3.0 5.0 0.00 0.00 0.00 90 1028.1
20210922075130 61 191 3.0 6.0 0.00 0.00 0.00 90 1028.1
20210922073628 61 189 3.0 7.0 0.00 0.00 0.00 90 1028.4
20210922072129 61 183 2.0 7.0 0.00 0.00 0.00 90 1028.4
20210922070628 61 195 3.0 6.0 0.00 0.00 0.00 90 1028.4
20210922065135 60 198 3.0 6.0 0.00 0.00 0.00 91 1028.4
20210922063627 60 198 2.0 5.0 0.00 0.00 0.00 91 1028.7
20210922062128 60 198 3.0 4.0 0.00 0.00 0.00 91 1028.7
20210922060627 60 198 2.0 4.0 0.00 0.00 0.00 91 1029.1
20210922055131 60 198 3.0 5.0 0.00 0.00 0.00 91 1029.1
20210922053628 60 198 3.0 6.0 0.00 0.00 0.00 91 1029.1
20210922052130 60 194 3.0 6.0 0.00 0.00 0.00 90 1029.1
20210922050628 60 180 3.0 5.0 0.00 0.00 0.00 90 1029.4
20210922045129 60 182 3.0 6.0 0.00 0.00 0.00 89 1029.8
20210922043628 61 184 2.0 5.0 0.00 0.00 0.00 89 1029.8
20210922042129 61 198 0.0 5.0 0.00 0.00 0.00 89 1030.1
20210922040629 61 198 0.0 0.0 0.00 0.00 0.00 89 1030.1
20210922035129 61 198 0.0 0.0 0.00 0.00 0.00 89 1030.1